Hlavní strana
METAR-TAF:

METAR-TAF

Letiště :

Kärdla, Estonsko

zeměpisná šířka: 58-59N, zeměpisná délka: 022-49E, výška: 5 m

Aktuální stav počasí

Zpráva byla vytvořena před 21 minutami, v 11:50 UTC
Severoseverovýchodní vítr 6 kt
Teplota 13°C
Vlhkost vzduchu 67%
Tlak 1029 hPa
Viditelnost 10 km a více
Žádná oblačnost pod 1500 m, nevyskytují se cumulonimby.

METAR: EEKA 231150Z 03006KT CAVOK 13/07 Q1029

Čas: 15:11 (12:11 UTC)

Předpověď počasí

Zpráva byla vytvořena před 9 hodinami a 11 minutami, v 03:00 UTC
Předpověď platná od 23 v 04 UTC do 23 v 10 UTC
Jižní vítr 5 kt
Viditelnost 10 km a více
Žádná oblačnost pod 1500 m, nevyskytují se cumulonimby.

TAF: EEKA 230300Z 2304/2310 19005KT CAVOK

Stav a předpovědi počasí z více než 4 000 letišť (zprávy METAR a TAF).

Červené a žluté tečky na mapě představují dostupné meteorologické stanice.

Když kurzor umístíte na tečku, zobrazí se název stanice.

Pak kliknutím zobrazíte stav a předpověď počasí.

Chcete-li změnit mapu, kliknutím na zelené tlačítko se znaménkem +mapu přiblížíte, kliknutím na zelené tlačítko se znaménkem – mapu oddálíte a kliknutím na zelené šipky přejdete na sousední mapy.


METAR-TAF: